sensor_id;sensor_type;location;lat;lon;timestamp;P1;durP1;ratioP1;P2;durP2;ratioP2
29432;SDS011;16405;53.964;13.448;2024-01-16T00:02:18;1.80;;;0.57;;
29432;SDS011;16405;53.964;13.448;2024-01-16T00:04:44;3.95;;;0.60;;
29432;SDS011;16405;53.964;13.448;2024-01-16T00:07:12;2.42;;;0.60;;
29432;SDS011;16405;53.964;13.448;2024-01-16T00:09:40;4.22;;;0.60;;
29432;SDS011;16405;53.964;13.448;2024-01-16T00:12:06;2.42;;;0.70;;
29432;SDS011;16405;53.964;13.448;2024-01-16T00:14:36;4.88;;;0.52;;
29432;SDS011;16405;53.964;13.448;2024-01-16T00:17:04;6.97;;;0.90;;
29432;SDS011;16405;53.964;13.448;2024-01-16T00:19:38;3.70;;;0.63;;
29432;SDS011;16405;53.964;13.448;2024-01-16T00:22:05;4.93;;;0.90;;
29432;SDS011;16405;53.964;13.448;2024-01-16T00:24:36;2.80;;;0.65;;
29432;SDS011;16405;53.964;13.448;2024-01-16T00:27:02;1.48;;;0.60;;
29432;SDS011;16405;53.964;13.448;2024-01-16T00:29:28;2.25;;;0.77;;
29432;SDS011;16405;53.964;13.448;2024-01-16T00:31:55;5.57;;;0.82;;
29432;SDS011;16405;53.964;13.448;2024-01-16T00:34:21;3.15;;;0.82;;
29432;SDS011;16405;53.964;13.448;2024-01-16T00:36:52;3.70;;;0.77;;
29432;SDS011;16405;53.964;13.448;2024-01-16T00:39:17;5.13;;;0.77;;
29432;SDS011;16405;53.964;13.448;2024-01-16T00:41:43;2.55;;;0.73;;
29432;SDS011;16405;53.964;13.448;2024-01-16T00:44:10;2.47;;;0.68;;
29432;SDS011;16405;53.964;13.448;2024-01-16T00:46:36;1.77;;;0.65;;
29432;SDS011;16405;53.964;13.448;2024-01-16T00:49:02;6.13;;;0.57;;
29432;SDS011;16405;53.964;13.448;2024-01-16T00:51:35;4.10;;;0.68;;
29432;SDS011;16405;53.964;13.448;2024-01-16T00:54:01;3.90;;;0.77;;
29432;SDS011;16405;53.964;13.448;2024-01-16T00:56:26;3.92;;;0.60;;
29432;SDS011;16405;53.964;13.448;2024-01-16T00:58:52;3.58;;;0.80;;
29432;SDS011;16405;53.964;13.448;2024-01-16T01:01:24;2.75;;;0.50;;
29432;SDS011;16405;53.964;13.448;2024-01-16T01:03:50;4.65;;;0.88;;
29432;SDS011;16405;53.964;13.448;2024-01-16T01:06:16;4.78;;;0.57;;
29432;SDS011;16405;53.964;13.448;2024-01-16T01:08:42;3.60;;;0.80;;
29432;SDS011;16405;53.964;13.448;2024-01-16T01:11:08;3.75;;;0.70;;
29432;SDS011;16405;53.964;13.448;2024-01-16T01:13:34;4.38;;;0.70;;
29432;SDS011;16405;53.964;13.448;2024-01-16T01:16:00;5.05;;;0.80;;
29432;SDS011;16405;53.964;13.448;2024-01-16T01:18:28;5.20;;;0.80;;
29432;SDS011;16405;53.964;13.448;2024-01-16T01:20:54;3.90;;;0.70;;
29432;SDS011;16405;53.964;13.448;2024-01-16T01:23:19;5.35;;;0.70;;
29432;SDS011;16405;53.964;13.448;2024-01-16T01:25:45;3.08;;;0.60;;
29432;SDS011;16405;53.964;13.448;2024-01-16T01:28:11;2.20;;;0.70;;
29432;SDS011;16405;53.964;13.448;2024-01-16T01:30:37;3.60;;;0.80;;
29432;SDS011;16405;53.964;13.448;2024-01-16T01:33:05;4.50;;;1.05;;
29432;SDS011;16405;53.964;13.448;2024-01-16T01:35:34;3.90;;;0.82;;
29432;SDS011;16405;53.964;13.448;2024-01-16T01:38:00;5.45;;;1.05;;
29432;SDS011;16405;53.964;13.448;2024-01-16T01:40:26;1.40;;;0.60;;
29432;SDS011;16405;53.964;13.448;2024-01-16T01:42:51;6.10;;;1.17;;
29432;SDS011;16405;53.964;13.448;2024-01-16T01:45:17;4.85;;;0.90;;
29432;SDS011;16405;53.964;13.448;2024-01-16T01:47:48;2.45;;;0.90;;
29432;SDS011;16405;53.964;13.448;2024-01-16T01:50:15;2.55;;;1.08;;
29432;SDS011;16405;53.964;13.448;2024-01-16T01:52:41;1.77;;;0.70;;
29432;SDS011;16405;53.964;13.448;2024-01-16T01:55:10;5.07;;;0.70;;
29432;SDS011;16405;53.964;13.448;2024-01-16T01:57:41;5.35;;;0.85;;
29432;SDS011;16405;53.964;13.448;2024-01-16T02:00:08;8.82;;;1.23;;
29432;SDS011;16405;53.964;13.448;2024-01-16T02:02:34;2.47;;;0.90;;
29432;SDS011;16405;53.964;13.448;2024-01-16T02:05:00;6.38;;;1.08;;
29432;SDS011;16405;53.964;13.448;2024-01-16T02:07:34;10.57;;;0.90;;
29432;SDS011;16405;53.964;13.448;2024-01-16T02:10:00;3.35;;;0.90;;
29432;SDS011;16405;53.964;13.448;2024-01-16T02:12:26;3.58;;;0.80;;
29432;SDS011;16405;53.964;13.448;2024-01-16T02:15:00;5.20;;;0.88;;
29432;SDS011;16405;53.964;13.448;2024-01-16T02:17:26;5.88;;;1.10;;
29432;SDS011;16405;53.964;13.448;2024-01-16T02:19:52;7.38;;;1.50;;
29432;SDS011;16405;53.964;13.448;2024-01-16T02:22:19;7.30;;;0.80;;
29432;SDS011;16405;53.964;13.448;2024-01-16T02:24:49;2.63;;;1.27;;
29432;SDS011;16405;53.964;13.448;2024-01-16T02:27:15;2.53;;;0.80;;
29432;SDS011;16405;53.964;13.448;2024-01-16T02:29:41;3.22;;;1.42;;
29432;SDS011;16405;53.964;13.448;2024-01-16T02:32:11;5.75;;;1.00;;
29432;SDS011;16405;53.964;13.448;2024-01-16T02:34:38;4.28;;;0.82;;
29432;SDS011;16405;53.964;13.448;2024-01-16T02:37:11;7.28;;;1.10;;
29432;SDS011;16405;53.964;13.448;2024-01-16T02:39:37;4.07;;;1.10;;
29432;SDS011;16405;53.964;13.448;2024-01-16T02:42:03;4.13;;;1.08;;
29432;SDS011;16405;53.964;13.448;2024-01-16T02:44:29;2.58;;;0.70;;
29432;SDS011;16405;53.964;13.448;2024-01-16T02:47:00;4.03;;;1.00;;
29432;SDS011;16405;53.964;13.448;2024-01-16T02:49:26;4.65;;;0.85;;
29432;SDS011;16405;53.964;13.448;2024-01-16T02:51:52;4.10;;;0.65;;
29432;SDS011;16405;53.964;13.448;2024-01-16T02:54:19;3.83;;;0.80;;
29432;SDS011;16405;53.964;13.448;2024-01-16T02:56:45;5.60;;;0.90;;
29432;SDS011;16405;53.964;13.448;2024-01-16T02:59:16;7.18;;;0.95;;
29432;SDS011;16405;53.964;13.448;2024-01-16T03:01:42;7.70;;;1.05;;
29432;SDS011;16405;53.964;13.448;2024-01-16T03:04:08;3.63;;;0.90;;
29432;SDS011;16405;53.964;13.448;2024-01-16T03:06:34;4.72;;;1.10;;
29432;SDS011;16405;53.964;13.448;2024-01-16T03:08:59;4.75;;;0.60;;
29432;SDS011;16405;53.964;13.448;2024-01-16T03:11:25;2.72;;;0.70;;
29432;SDS011;16405;53.964;13.448;2024-01-16T03:14:00;3.53;;;0.90;;
29432;SDS011;16405;53.964;13.448;2024-01-16T03:16:26;2.67;;;1.10;;
29432;SDS011;16405;53.964;13.448;2024-01-16T03:18:52;2.33;;;0.93;;
29432;SDS011;16405;53.964;13.448;2024-01-16T03:21:20;2.67;;;0.88;;
29432;SDS011;16405;53.964;13.448;2024-01-16T03:23:49;4.90;;;0.75;;
29432;SDS011;16405;53.964;13.448;2024-01-16T03:26:15;3.97;;;1.08;;
29432;SDS011;16405;53.964;13.448;2024-01-16T03:28:41;5.13;;;0.90;;
29432;SDS011;16405;53.964;13.448;2024-01-16T03:31:07;6.15;;;0.80;;
29432;SDS011;16405;53.964;13.448;2024-01-16T03:33:33;6.32;;;0.75;;
29432;SDS011;16405;53.964;13.448;2024-01-16T03:36:07;1.25;;;0.52;;
29432;SDS011;16405;53.964;13.448;2024-01-16T03:38:35;2.78;;;0.80;;
29432;SDS011;16405;53.964;13.448;2024-01-16T03:41:13;7.90;;;0.90;;
29432;SDS011;16405;53.964;13.448;2024-01-16T03:43:39;2.42;;;0.60;;
29432;SDS011;16405;53.964;13.448;2024-01-16T03:46:06;5.65;;;0.75;;
29432;SDS011;16405;53.964;13.448;2024-01-16T03:48:39;5.35;;;0.70;;
29432;SDS011;16405;53.964;13.448;2024-01-16T03:51:05;4.32;;;0.65;;
29432;SDS011;16405;53.964;13.448;2024-01-16T03:53:31;1.15;;;0.68;;
29432;SDS011;16405;53.964;13.448;2024-01-16T03:55:57;2.33;;;0.60;;
29432;SDS011;16405;53.964;13.448;2024-01-16T03:58:44;3.15;;;0.73;;
29432;SDS011;16405;53.964;13.448;2024-01-16T04:01:09;9.18;;;1.23;;
29432;SDS011;16405;53.964;13.448;2024-01-16T04:03:35;4.60;;;0.75;;
29432;SDS011;16405;53.964;13.448;2024-01-16T04:06:01;2.53;;;0.68;;
29432;SDS011;16405;53.964;13.448;2024-01-16T04:08:27;1.70;;;0.65;;
29432;SDS011;16405;53.964;13.448;2024-01-16T04:10:52;4.53;;;1.05;;
29432;SDS011;16405;53.964;13.448;2024-01-16T04:13:21;2.22;;;0.57;;
29432;SDS011;16405;53.964;13.448;2024-01-16T04:15:47;2.42;;;0.60;;
29432;SDS011;16405;53.964;13.448;2024-01-16T04:18:13;3.83;;;0.80;;
29432;SDS011;16405;53.964;13.448;2024-01-16T04:20:39;3.45;;;0.90;;
29432;SDS011;16405;53.964;13.448;2024-01-16T04:23:05;2.17;;;0.90;;
29432;SDS011;16405;53.964;13.448;2024-01-16T04:25:31;4.25;;;1.00;;
29432;SDS011;16405;53.964;13.448;2024-01-16T04:27:57;5.13;;;1.00;;
29432;SDS011;16405;53.964;13.448;2024-01-16T04:30:32;4.13;;;0.80;;
29432;SDS011;16405;53.964;13.448;2024-01-16T04:32:58;4.32;;;1.00;;
29432;SDS011;16405;53.964;13.448;2024-01-16T04:35:24;3.05;;;0.98;;
29432;SDS011;16405;53.964;13.448;2024-01-16T04:37:57;7.53;;;1.08;;
29432;SDS011;16405;53.964;13.448;2024-01-16T04:40:23;4.07;;;0.88;;
29432;SDS011;16405;53.964;13.448;2024-01-16T04:42:48;3.08;;;0.80;;
29432;SDS011;16405;53.964;13.448;2024-01-16T04:45:14;4.88;;;1.45;;
29432;SDS011;16405;53.964;13.448;2024-01-16T04:47:40;2.15;;;0.70;;
29432;SDS011;16405;53.964;13.448;2024-01-16T04:50:06;6.50;;;0.85;;
29432;SDS011;16405;53.964;13.448;2024-01-16T04:52:35;3.08;;;0.60;;
29432;SDS011;16405;53.964;13.448;2024-01-16T04:55:01;5.35;;;1.40;;
29432;SDS011;16405;53.964;13.448;2024-01-16T04:57:26;6.65;;;1.20;;
29432;SDS011;16405;53.964;13.448;2024-01-16T04:59:52;10.43;;;4.50;;
29432;SDS011;16405;53.964;13.448;2024-01-16T05:02:18;17.13;;;7.75;;
29432;SDS011;16405;53.964;13.448;2024-01-16T05:04:44;8.23;;;4.15;;
29432;SDS011;16405;53.964;13.448;2024-01-16T05:07:19;9.55;;;2.95;;
29432;SDS011;16405;53.964;13.448;2024-01-16T05:09:45;7.88;;;3.20;;
29432;SDS011;16405;53.964;13.448;2024-01-16T05:12:12;12.02;;;4.25;;
29432;SDS011;16405;53.964;13.448;2024-01-16T05:14:45;4.55;;;2.30;;
29432;SDS011;16405;53.964;13.448;2024-01-16T05:17:11;8.63;;;2.05;;
29432;SDS011;16405;53.964;13.448;2024-01-16T05:19:37;2.92;;;1.70;;
29432;SDS011;16405;53.964;13.448;2024-01-16T05:22:03;4.65;;;1.77;;
29432;SDS011;16405;53.964;13.448;2024-01-16T05:24:28;4.53;;;1.40;;
29432;SDS011;16405;53.964;13.448;2024-01-16T05:27:02;6.97;;;1.10;;
29432;SDS011;16405;53.964;13.448;2024-01-16T05:29:29;3.97;;;1.23;;
29432;SDS011;16405;53.964;13.448;2024-01-16T05:31:56;3.42;;;1.10;;
29432;SDS011;16405;53.964;13.448;2024-01-16T05:34:22;1.65;;;1.20;;
29432;SDS011;16405;53.964;13.448;2024-01-16T05:36:55;5.28;;;1.20;;
29432;SDS011;16405;53.964;13.448;2024-01-16T05:39:21;5.75;;;1.10;;
29432;SDS011;16405;53.964;13.448;2024-01-16T05:41:47;5.25;;;1.27;;
29432;SDS011;16405;53.964;13.448;2024-01-16T05:44:13;4.28;;;1.48;;
29432;SDS011;16405;53.964;13.448;2024-01-16T05:46:46;3.25;;;1.13;;
29432;SDS011;16405;53.964;13.448;2024-01-16T05:49:12;3.28;;;1.20;;
29432;SDS011;16405;53.964;13.448;2024-01-16T05:51:37;2.75;;;1.23;;
29432;SDS011;16405;53.964;13.448;2024-01-16T05:54:03;4.55;;;1.25;;
29432;SDS011;16405;53.964;13.448;2024-01-16T05:56:30;4.00;;;1.10;;
29432;SDS011;16405;53.964;13.448;2024-01-16T05:59:06;5.35;;;1.50;;
29432;SDS011;16405;53.964;13.448;2024-01-16T06:01:32;5.88;;;1.40;;
29432;SDS011;16405;53.964;13.448;2024-01-16T06:04:01;7.18;;;1.90;;
29432;SDS011;16405;53.964;13.448;2024-01-16T06:06:29;5.00;;;2.45;;
29432;SDS011;16405;53.964;13.448;2024-01-16T06:08:55;9.00;;;3.13;;
29432;SDS011;16405;53.964;13.448;2024-01-16T06:11:33;12.00;;;5.90;;
29432;SDS011;16405;53.964;13.448;2024-01-16T06:14:03;11.95;;;5.75;;
29432;SDS011;16405;53.964;13.448;2024-01-16T06:16:29;6.72;;;2.28;;
29432;SDS011;16405;53.964;13.448;2024-01-16T06:18:55;19.10;;;5.78;;
29432;SDS011;16405;53.964;13.448;2024-01-16T06:21:25;18.33;;;7.40;;
29432;SDS011;16405;53.964;13.448;2024-01-16T06:23:51;9.73;;;3.67;;
29432;SDS011;16405;53.964;13.448;2024-01-16T06:26:17;8.38;;;3.00;;
29432;SDS011;16405;53.964;13.448;2024-01-16T06:28:45;6.93;;;3.00;;
29432;SDS011;16405;53.964;13.448;2024-01-16T06:31:16;8.50;;;3.20;;
29432;SDS011;16405;53.964;13.448;2024-01-16T06:33:42;8.00;;;3.08;;
29432;SDS011;16405;53.964;13.448;2024-01-16T06:36:08;7.50;;;2.58;;
29432;SDS011;16405;53.964;13.448;2024-01-16T06:38:34;12.23;;;3.78;;
29432;SDS011;16405;53.964;13.448;2024-01-16T06:41:08;15.77;;;5.70;;
29432;SDS011;16405;53.964;13.448;2024-01-16T06:43:34;23.65;;;6.10;;
29432;SDS011;16405;53.964;13.448;2024-01-16T06:46:00;19.05;;;6.45;;
29432;SDS011;16405;53.964;13.448;2024-01-16T06:48:26;17.10;;;6.40;;
29432;SDS011;16405;53.964;13.448;2024-01-16T06:50:52;13.65;;;5.72;;
29432;SDS011;16405;53.964;13.448;2024-01-16T06:53:26;22.27;;;6.88;;
29432;SDS011;16405;53.964;13.448;2024-01-16T06:55:52;9.43;;;3.50;;
29432;SDS011;16405;53.964;13.448;2024-01-16T06:58:17;10.65;;;2.67;;
29432;SDS011;16405;53.964;13.448;2024-01-16T07:00:43;11.43;;;2.60;;
29432;SDS011;16405;53.964;13.448;2024-01-16T07:03:19;5.53;;;1.70;;
29432;SDS011;16405;53.964;13.448;2024-01-16T07:05:45;7.45;;;2.20;;
29432;SDS011;16405;53.964;13.448;2024-01-16T07:08:11;8.20;;;1.90;;
29432;SDS011;16405;53.964;13.448;2024-01-16T07:10:37;10.65;;;1.70;;
29432;SDS011;16405;53.964;13.448;2024-01-16T07:13:10;11.68;;;2.05;;
29432;SDS011;16405;53.964;13.448;2024-01-16T07:15:37;8.30;;;1.90;;
29432;SDS011;16405;53.964;13.448;2024-01-16T07:18:03;4.90;;;1.80;;
29432;SDS011;16405;53.964;13.448;2024-01-16T07:20:29;6.07;;;1.90;;
29432;SDS011;16405;53.964;13.448;2024-01-16T07:22:54;11.77;;;2.10;;
29432;SDS011;16405;53.964;13.448;2024-01-16T07:25:20;8.15;;;2.10;;
29432;SDS011;16405;53.964;13.448;2024-01-16T07:27:49;8.02;;;2.60;;
29432;SDS011;16405;53.964;13.448;2024-01-16T07:30:15;10.23;;;2.50;;
29432;SDS011;16405;53.964;13.448;2024-01-16T07:32:41;14.75;;;3.70;;
29432;SDS011;16405;53.964;13.448;2024-01-16T07:35:07;4.88;;;2.25;;
29432;SDS011;16405;53.964;13.448;2024-01-16T07:37:33;6.30;;;2.53;;
29432;SDS011;16405;53.964;13.448;2024-01-16T07:40:08;11.97;;;2.60;;
29432;SDS011;16405;53.964;13.448;2024-01-16T07:42:34;5.45;;;2.15;;
29432;SDS011;16405;53.964;13.448;2024-01-16T07:45:01;8.82;;;2.53;;
29432;SDS011;16405;53.964;13.448;2024-01-16T07:47:33;8.15;;;2.38;;
29432;SDS011;16405;53.964;13.448;2024-01-16T07:50:00;8.35;;;2.72;;
29432;SDS011;16405;53.964;13.448;2024-01-16T07:52:27;10.30;;;2.55;;
29432;SDS011;16405;53.964;13.448;2024-01-16T07:55:00;7.75;;;2.22;;
29432;SDS011;16405;53.964;13.448;2024-01-16T07:57:25;10.70;;;3.03;;
29432;SDS011;16405;53.964;13.448;2024-01-16T07:59:53;7.32;;;2.58;;
29432;SDS011;16405;53.964;13.448;2024-01-16T08:02:19;8.82;;;2.65;;
29432;SDS011;16405;53.964;13.448;2024-01-16T08:04:45;11.30;;;2.20;;
29432;SDS011;16405;53.964;13.448;2024-01-16T08:07:16;5.43;;;2.35;;
29432;SDS011;16405;53.964;13.448;2024-01-16T08:09:42;6.53;;;2.13;;
29432;SDS011;16405;53.964;13.448;2024-01-16T08:12:08;8.15;;;2.33;;
29432;SDS011;16405;53.964;13.448;2024-01-16T08:14:37;7.45;;;2.35;;
29432;SDS011;16405;53.964;13.448;2024-01-16T08:17:02;5.80;;;2.40;;
29432;SDS011;16405;53.964;13.448;2024-01-16T08:19:33;10.93;;;2.80;;
29432;SDS011;16405;53.964;13.448;2024-01-16T08:21:59;8.32;;;3.10;;
29432;SDS011;16405;53.964;13.448;2024-01-16T08:24:27;14.20;;;3.40;;
29432;SDS011;16405;53.964;13.448;2024-01-16T08:26:53;11.60;;;3.05;;
29432;SDS011;16405;53.964;13.448;2024-01-16T08:29:26;15.35;;;2.70;;
29432;SDS011;16405;53.964;13.448;2024-01-16T08:31:52;7.25;;;2.97;;
29432;SDS011;16405;53.964;13.448;2024-01-16T08:34:17;8.48;;;3.28;;
29432;SDS011;16405;53.964;13.448;2024-01-16T08:36:43;11.02;;;3.75;;
29432;SDS011;16405;53.964;13.448;2024-01-16T08:39:10;10.38;;;3.55;;
29432;SDS011;16405;53.964;13.448;2024-01-16T08:41:44;20.45;;;4.28;;
29432;SDS011;16405;53.964;13.448;2024-01-16T08:44:10;8.90;;;4.10;;
29432;SDS011;16405;53.964;13.448;2024-01-16T08:46:36;12.25;;;3.83;;
29432;SDS011;16405;53.964;13.448;2024-01-16T08:49:02;10.35;;;3.67;;
29432;SDS011;16405;53.964;13.448;2024-01-16T08:51:36;11.57;;;3.72;;
29432;SDS011;16405;53.964;13.448;2024-01-16T08:54:02;8.68;;;3.28;;
29432;SDS011;16405;53.964;13.448;2024-01-16T08:56:28;9.48;;;3.45;;
29432;SDS011;16405;53.964;13.448;2024-01-16T08:58:54;11.05;;;3.13;;
29432;SDS011;16405;53.964;13.448;2024-01-16T09:01:27;9.38;;;2.90;;
29432;SDS011;16405;53.964;13.448;2024-01-16T09:03:55;10.35;;;3.47;;
29432;SDS011;16405;53.964;13.448;2024-01-16T09:06:21;10.80;;;3.22;;
29432;SDS011;16405;53.964;13.448;2024-01-16T09:08:56;8.93;;;3.15;;
29432;SDS011;16405;53.964;13.448;2024-01-16T09:11:22;7.72;;;3.30;;
29432;SDS011;16405;53.964;13.448;2024-01-16T09:13:48;12.77;;;4.40;;
29432;SDS011;16405;53.964;13.448;2024-01-16T09:16:21;15.55;;;4.95;;
29432;SDS011;16405;53.964;13.448;2024-01-16T09:18:47;15.70;;;5.63;;
29432;SDS011;16405;53.964;13.448;2024-01-16T09:21:16;17.35;;;4.10;;
29432;SDS011;16405;53.964;13.448;2024-01-16T09:23:42;8.77;;;2.85;;
29432;SDS011;16405;53.964;13.448;2024-01-16T09:26:09;9.75;;;2.70;;
29432;SDS011;16405;53.964;13.448;2024-01-16T09:28:37;9.05;;;2.55;;
29432;SDS011;16405;53.964;13.448;2024-01-16T09:31:05;9.05;;;2.83;;
29432;SDS011;16405;53.964;13.448;2024-01-16T09:33:33;8.80;;;2.90;;
29432;SDS011;16405;53.964;13.448;2024-01-16T09:36:06;12.65;;;2.83;;
29432;SDS011;16405;53.964;13.448;2024-01-16T09:38:35;6.25;;;2.40;;
29432;SDS011;16405;53.964;13.448;2024-01-16T09:41:04;6.68;;;2.30;;
29432;SDS011;16405;53.964;13.448;2024-01-16T09:43:33;9.30;;;1.75;;
29432;SDS011;16405;53.964;13.448;2024-01-16T09:46:00;14.05;;;1.73;;
29432;SDS011;16405;53.964;13.448;2024-01-16T09:48:31;3.90;;;1.65;;
29432;SDS011;16405;53.964;13.448;2024-01-16T09:51:05;6.78;;;1.70;;
29432;SDS011;16405;53.964;13.448;2024-01-16T09:53:34;10.25;;;1.88;;
29432;SDS011;16405;53.964;13.448;2024-01-16T09:56:13;5.18;;;1.73;;
29432;SDS011;16405;53.964;13.448;2024-01-16T09:58:49;7.65;;;1.92;;
29432;SDS011;16405;53.964;13.448;2024-01-16T10:01:30;6.88;;;1.50;;
29432;SDS011;16405;53.964;13.448;2024-01-16T10:03:58;5.85;;;1.70;;
29432;SDS011;16405;53.964;13.448;2024-01-16T10:06:31;4.18;;;1.70;;
29432;SDS011;16405;53.964;13.448;2024-01-16T10:08:59;5.00;;;1.80;;
29432;SDS011;16405;53.964;13.448;2024-01-16T10:11:34;6.10;;;1.95;;
29432;SDS011;16405;53.964;13.448;2024-01-16T10:14:00;13.55;;;2.40;;
29432;SDS011;16405;53.964;13.448;2024-01-16T10:19:53;6.68;;;1.95;;
29432;SDS011;16405;53.964;13.448;2024-01-16T10:22:22;3.70;;;1.90;;
29432;SDS011;16405;53.964;13.448;2024-01-16T10:25:12;5.40;;;1.55;;
29432;SDS011;16405;53.964;13.448;2024-01-16T10:27:49;5.63;;;1.83;;
29432;SDS011;16405;53.964;13.448;2024-01-16T10:30:35;12.80;;;2.08;;
29432;SDS011;16405;53.964;13.448;2024-01-16T10:33:13;8.13;;;1.80;;
29432;SDS011;16405;53.964;13.448;2024-01-16T10:36:15;11.30;;;1.50;;
29432;SDS011;16405;53.964;13.448;2024-01-16T10:38:46;4.15;;;1.60;;
29432;SDS011;16405;53.964;13.448;2024-01-16T10:41:15;6.90;;;2.63;;
29432;SDS011;16405;53.964;13.448;2024-01-16T10:43:42;13.82;;;2.53;;
29432;SDS011;16405;53.964;13.448;2024-01-16T10:46:32;11.40;;;4.28;;
29432;SDS011;16405;53.964;13.448;2024-01-16T10:49:00;11.85;;;2.78;;
29432;SDS011;16405;53.964;13.448;2024-01-16T10:51:28;15.75;;;4.90;;
29432;SDS011;16405;53.964;13.448;2024-01-16T10:56:31;12.65;;;2.60;;
29432;SDS011;16405;53.964;13.448;2024-01-16T10:58:59;11.43;;;2.25;;
29432;SDS011;16405;53.964;13.448;2024-01-16T11:01:39;35.75;;;15.02;;
29432;SDS011;16405;53.964;13.448;2024-01-16T11:04:08;4.68;;;1.80;;
29432;SDS011;16405;53.964;13.448;2024-01-16T11:06:34;9.63;;;2.40;;
29432;SDS011;16405;53.964;13.448;2024-01-16T11:09:01;10.75;;;5.53;;
29432;SDS011;16405;53.964;13.448;2024-01-16T11:11:31;8.05;;;1.98;;
29432;SDS011;16405;53.964;13.448;2024-01-16T11:13:59;6.78;;;2.30;;
29432;SDS011;16405;53.964;13.448;2024-01-16T11:16:31;7.88;;;2.13;;
29432;SDS011;16405;53.964;13.448;2024-01-16T11:18:58;9.77;;;2.00;;
29432;SDS011;16405;53.964;13.448;2024-01-16T11:21:28;6.35;;;1.90;;
29432;SDS011;16405;53.964;13.448;2024-01-16T11:23:54;10.80;;;2.20;;
29432;SDS011;16405;53.964;13.448;2024-01-16T11:26:30;5.78;;;2.28;;
29432;SDS011;16405;53.964;13.448;2024-01-16T11:31:51;7.22;;;2.17;;
29432;SDS011;16405;53.964;13.448;2024-01-16T11:37:11;6.03;;;2.30;;
29432;SDS011;16405;53.964;13.448;2024-01-16T11:39:38;9.50;;;2.25;;
29432;SDS011;16405;53.964;13.448;2024-01-16T11:42:05;12.32;;;3.13;;
29432;SDS011;16405;53.964;13.448;2024-01-16T11:47:18;6.97;;;2.28;;
29432;SDS011;16405;53.964;13.448;2024-01-16T11:50:08;6.95;;;1.98;;
29432;SDS011;16405;53.964;13.448;2024-01-16T11:52:54;7.22;;;2.53;;
29432;SDS011;16405;53.964;13.448;2024-01-16T11:55:30;7.30;;;2.20;;
29432;SDS011;16405;53.964;13.448;2024-01-16T12:01:22;7.88;;;3.20;;
29432;SDS011;16405;53.964;13.448;2024-01-16T12:06:30;9.77;;;2.78;;
29432;SDS011;16405;53.964;13.448;2024-01-16T12:09:16;5.38;;;2.00;;
29432;SDS011;16405;53.964;13.448;2024-01-16T12:11:46;29.98;;;8.38;;
29432;SDS011;16405;53.964;13.448;2024-01-16T12:14:29;9.80;;;2.70;;
29432;SDS011;16405;53.964;13.448;2024-01-16T12:19:37;4.60;;;2.08;;
29432;SDS011;16405;53.964;13.448;2024-01-16T12:22:08;8.20;;;2.03;;
29432;SDS011;16405;53.964;13.448;2024-01-16T12:24:38;7.80;;;2.58;;
29432;SDS011;16405;53.964;13.448;2024-01-16T12:27:06;6.63;;;1.60;;
29432;SDS011;16405;53.964;13.448;2024-01-16T12:29:33;7.18;;;2.47;;
29432;SDS011;16405;53.964;13.448;2024-01-16T12:32:11;8.20;;;2.20;;
29432;SDS011;16405;53.964;13.448;2024-01-16T12:34:44;6.95;;;1.98;;
29432;SDS011;16405;53.964;13.448;2024-01-16T12:37:13;9.57;;;4.00;;
29432;SDS011;16405;53.964;13.448;2024-01-16T12:39:40;9.13;;;3.05;;
29432;SDS011;16405;53.964;13.448;2024-01-16T12:42:15;19.02;;;4.00;;
29432;SDS011;16405;53.964;13.448;2024-01-16T12:44:41;11.32;;;3.42;;
29432;SDS011;16405;53.964;13.448;2024-01-16T12:47:07;8.52;;;3.20;;
29432;SDS011;16405;53.964;13.448;2024-01-16T12:49:32;7.53;;;2.72;;
29432;SDS011;16405;53.964;13.448;2024-01-16T12:52:17;9.32;;;3.67;;
29432;SDS011;16405;53.964;13.448;2024-01-16T12:54:56;9.57;;;3.85;;
29432;SDS011;16405;53.964;13.448;2024-01-16T12:57:31;9.65;;;3.28;;
29432;SDS011;16405;53.964;13.448;2024-01-16T12:59:56;5.65;;;2.65;;
29432;SDS011;16405;53.964;13.448;2024-01-16T13:02:25;7.78;;;3.03;;
29432;SDS011;16405;53.964;13.448;2024-01-16T13:04:57;7.85;;;2.83;;
29432;SDS011;16405;53.964;13.448;2024-01-16T13:07:25;7.03;;;3.15;;
29432;SDS011;16405;53.964;13.448;2024-01-16T13:12:41;6.60;;;2.80;;
29432;SDS011;16405;53.964;13.448;2024-01-16T13:15:07;9.20;;;3.25;;
29432;SDS011;16405;53.964;13.448;2024-01-16T13:17:33;9.63;;;3.22;;
29432;SDS011;16405;53.964;13.448;2024-01-16T13:20:04;12.88;;;2.20;;
29432;SDS011;16405;53.964;13.448;2024-01-16T13:22:35;8.75;;;4.30;;
29432;SDS011;16405;53.964;13.448;2024-01-16T13:25:01;8.43;;;2.88;;
29432;SDS011;16405;53.964;13.448;2024-01-16T13:27:27;11.95;;;3.70;;
29432;SDS011;16405;53.964;13.448;2024-01-16T13:29:57;9.10;;;3.75;;
29432;SDS011;16405;53.964;13.448;2024-01-16T13:32:23;25.55;;;15.80;;
29432;SDS011;16405;53.964;13.448;2024-01-16T13:34:49;24.73;;;12.18;;
29432;SDS011;16405;53.964;13.448;2024-01-16T13:37:18;5.97;;;2.80;;
29432;SDS011;16405;53.964;13.448;2024-01-16T13:39:48;8.98;;;3.45;;
29432;SDS011;16405;53.964;13.448;2024-01-16T13:42:13;12.02;;;4.53;;
29432;SDS011;16405;53.964;13.448;2024-01-16T13:44:43;13.80;;;3.80;;
29432;SDS011;16405;53.964;13.448;2024-01-16T13:47:09;12.50;;;6.70;;
29432;SDS011;16405;53.964;13.448;2024-01-16T13:49:40;12.27;;;3.55;;
29432;SDS011;16405;53.964;13.448;2024-01-16T13:52:06;10.07;;;4.10;;
29432;SDS011;16405;53.964;13.448;2024-01-16T13:54:31;10.05;;;3.88;;
29432;SDS011;16405;53.964;13.448;2024-01-16T13:56:57;14.73;;;5.68;;
29432;SDS011;16405;53.964;13.448;2024-01-16T13:59:23;18.95;;;7.47;;
29432;SDS011;16405;53.964;13.448;2024-01-16T14:01:49;8.35;;;3.92;;
29432;SDS011;16405;53.964;13.448;2024-01-16T14:04:14;8.82;;;4.53;;
29432;SDS011;16405;53.964;13.448;2024-01-16T14:06:40;15.18;;;6.10;;
29432;SDS011;16405;53.964;13.448;2024-01-16T14:09:08;11.88;;;5.72;;
29432;SDS011;16405;53.964;13.448;2024-01-16T14:11:34;12.88;;;4.90;;
29432;SDS011;16405;53.964;13.448;2024-01-16T14:14:02;9.82;;;5.60;;
29432;SDS011;16405;53.964;13.448;2024-01-16T14:16:28;15.63;;;6.47;;
29432;SDS011;16405;53.964;13.448;2024-01-16T14:18:54;7.22;;;4.82;;
29432;SDS011;16405;53.964;13.448;2024-01-16T14:21:19;16.75;;;5.82;;
29432;SDS011;16405;53.964;13.448;2024-01-16T14:23:52;10.90;;;4.85;;
29432;SDS011;16405;53.964;13.448;2024-01-16T14:26:19;15.30;;;5.57;;
29432;SDS011;16405;53.964;13.448;2024-01-16T14:28:45;8.60;;;4.47;;
29432;SDS011;16405;53.964;13.448;2024-01-16T14:31:11;8.15;;;4.10;;
29432;SDS011;16405;53.964;13.448;2024-01-16T14:33:39;11.35;;;4.70;;
29432;SDS011;16405;53.964;13.448;2024-01-16T14:36:05;14.60;;;4.25;;
29432;SDS011;16405;53.964;13.448;2024-01-16T14:38:31;11.00;;;4.47;;
29432;SDS011;16405;53.964;13.448;2024-01-16T14:40:57;12.13;;;5.00;;
29432;SDS011;16405;53.964;13.448;2024-01-16T14:43:22;10.07;;;4.20;;
29432;SDS011;16405;53.964;13.448;2024-01-16T14:45:48;8.48;;;3.35;;
29432;SDS011;16405;53.964;13.448;2024-01-16T14:48:15;7.22;;;4.03;;
29432;SDS011;16405;53.964;13.448;2024-01-16T14:50:43;14.13;;;3.92;;
29432;SDS011;16405;53.964;13.448;2024-01-16T14:53:10;7.75;;;3.90;;
29432;SDS011;16405;53.964;13.448;2024-01-16T14:55:37;18.77;;;6.10;;
29432;SDS011;16405;53.964;13.448;2024-01-16T14:58:03;9.25;;;4.35;;
29432;SDS011;16405;53.964;13.448;2024-01-16T15:00:29;14.63;;;5.53;;
29432;SDS011;16405;53.964;13.448;2024-01-16T15:03:00;9.77;;;4.38;;
29432;SDS011;16405;53.964;13.448;2024-01-16T15:05:26;12.15;;;4.90;;